Time;durP1;ratioP1;P1;durP2;ratioP2;P2;SDS_P1;SDS_P2;PMS_P1;PMS_P2;Temp;Humidity;BMP_temperature;BMP_pressure;BME280_temperature;BME280_humidity;BME280_pressure;Samples;Min_cycle;Max_cycle;Signal;HPM_P1;HPM_P2
2021/01/08 00:01:52;;;;;;;37.23;8.00;;;;;;;1.46;100.00;100370.03;5009907;28;20036;-68
2021/01/08 00:04:18;;;;;;;31.07;7.87;;;;;;;1.48;100.00;100370.94;5010773;28;20034;-68
2021/01/08 00:06:44;;;;;;;34.90;9.17;;;;;;;1.45;100.00;100365.66;5017978;28;20029;-69
2021/01/08 00:09:09;;;;;;;34.57;6.93;;;;;;;1.44;100.00;100369.06;5016138;28;20335;-68
2021/01/08 00:11:37;;;;;;;31.57;8.07;;;;;;;1.42;100.00;100371.59;5009894;28;20515;-68
2021/01/08 00:14:03;;;;;;;32.10;8.33;;;;;;;1.46;100.00;100375.19;5011689;28;20392;-67
2021/01/08 00:16:35;;;;;;;33.43;8.13;;;;;;;1.46;100.00;100370.03;5024355;28;20273;-69
2021/01/08 00:19:04;;;;;;;33.63;8.13;;;;;;;1.45;100.00;100375.97;5012238;28;20299;-68
2021/01/08 00:21:44;;;;;;;33.33;8.00;;;;;;;1.48;100.00;100375.22;5020435;28;20112;-68
2021/01/08 00:24:13;;;;;;;31.90;7.33;;;;;;;1.46;100.00;100370.91;5025984;28;20787;-69
2021/01/08 00:26:41;;;;;;;36.60;7.97;;;;;;;1.49;100.00;100374.41;5011347;28;20359;-68
2021/01/08 00:29:08;;;;;;;37.93;8.90;;;;;;;1.47;100.00;100376.91;5024815;28;20406;-69
2021/01/08 00:31:42;;;;;;;31.47;7.93;;;;;;;1.46;100.00;100370.91;5010674;28;20272;-68
2021/01/08 00:34:13;;;;;;;37.23;8.03;;;;;;;1.48;100.00;100368.38;5014890;28;20670;-68
2021/01/08 00:36:47;;;;;;;35.17;8.40;;;;;;;1.52;100.00;100365.06;5013781;28;20718;-69
2021/01/08 00:39:13;;;;;;;32.70;7.50;;;;;;;1.51;100.00;100375.31;5010139;28;20272;-69
2021/01/08 00:41:38;;;;;;;30.77;7.57;;;;;;;1.51;100.00;100373.59;5013905;28;20279;-67
2021/01/08 00:44:04;;;;;;;35.77;7.97;;;;;;;1.51;100.00;100373.59;5010514;28;20413;-68
2021/01/08 00:46:33;;;;;;;29.20;8.03;;;;;;;1.51;100.00;100363.31;5012215;28;20076;-68
2021/01/08 00:49:00;;;;;;;29.90;7.80;;;;;;;1.50;100.00;100366.72;5010780;28;20408;-69
2021/01/08 00:51:26;;;;;;;30.37;7.60;;;;;;;1.53;100.00;100371.09;5010781;28;20343;-69
2021/01/08 00:53:51;;;;;;;30.20;7.37;;;;;;;1.53;100.00;100377.09;5013440;28;20283;-69
2021/01/08 00:56:21;;;;;;;29.00;7.53;;;;;;;1.50;100.00;100376.13;5010379;28;20269;-67
2021/01/08 00:58:46;;;;;;;24.10;6.83;;;;;;;1.50;100.00;100376.13;5015695;28;20037;-69
2021/01/08 01:01:16;;;;;;;25.43;6.50;;;;;;;1.48;100.00;100381.25;5011255;28;20399;-69
2021/01/08 01:03:41;;;;;;;22.00;6.07;;;;;;;1.50;100.00;100383.88;5011097;28;20450;-69
2021/01/08 01:06:07;;;;;;;21.63;6.23;;;;;;;1.49;100.00;100375.25;5027969;28;20359;-68
2021/01/08 01:08:33;;;;;;;22.03;6.17;;;;;;;1.51;100.00;100373.59;5019080;28;20037;-67
2021/01/08 01:10:59;;;;;;;24.97;5.73;;;;;;;1.48;100.00;100378.66;5029695;28;20040;-69
2021/01/08 01:13:24;;;;;;;20.77;5.93;;;;;;;1.50;100.00;100376.13;5013019;28;20022;-68
2021/01/08 01:15:50;;;;;;;19.50;5.63;;;;;;;1.48;100.00;100378.66;5028704;28;20271;-69
2021/01/08 01:18:16;;;;;;;17.77;4.63;;;;;;;1.47;100.00;100382.06;5013572;28;20389;-67
2021/01/08 01:20:41;;;;;;;21.80;6.30;;;;;;;1.49;100.00;100382.13;5011830;28;20121;-69
2021/01/08 01:23:07;;;;;;;21.70;5.57;;;;;;;1.46;100.00;100381.19;5009790;28;20025;-68
2021/01/08 01:25:33;;;;;;;21.03;5.87;;;;;;;1.48;100.00;100386.41;5023300;28;20048;-68
2021/01/08 01:27:58;;;;;;;17.50;4.63;;;;;;;1.51;100.00;100385.63;5016554;28;20292;-68
2021/01/08 01:30:24;;;;;;;18.03;5.30;;;;;;;1.49;100.00;100388.16;5020121;28;20044;-67
2021/01/08 01:32:49;;;;;;;20.53;5.37;;;;;;;1.50;100.00;100394.19;5011361;28;20496;-67
2021/01/08 01:35:15;;;;;;;17.63;4.93;;;;;;;1.49;100.00;100392.44;5026802;28;20036;-68
2021/01/08 01:37:40;;;;;;;17.87;5.50;;;;;;;1.50;100.00;100391.59;5021810;28;20049;-69
2021/01/08 01:40:07;;;;;;;19.93;5.03;;;;;;;1.50;100.00;100394.19;5010557;28;20030;-68
2021/01/08 01:42:32;;;;;;;19.93;5.20;;;;;;;1.46;100.00;100390.63;5019392;28;20049;-69
2021/01/08 01:44:59;;;;;;;16.73;4.63;;;;;;;1.51;100.00;100407.09;5016657;28;20319;-67
2021/01/08 01:47:28;;;;;;;19.43;5.10;;;;;;;1.49;100.00;100398.44;5014763;28;20030;-68
2021/01/08 01:49:54;;;;;;;14.60;4.43;;;;;;;1.49;100.00;100402.72;5027586;28;20275;-68
2021/01/08 01:52:19;;;;;;;18.70;5.20;;;;;;;1.52;100.00;100402.81;5020512;28;20314;-68
2021/01/08 01:54:45;;;;;;;20.33;5.33;;;;;;;1.51;100.00;100401.94;5021015;28;20279;-68
2021/01/08 01:57:10;;;;;;;13.87;4.47;;;;;;;1.49;100.00;100408.75;5024659;28;20618;-67
2021/01/08 01:59:36;;;;;;;16.03;4.80;;;;;;;1.50;100.00;100407.94;5015405;28;20021;-68
2021/01/08 02:02:07;;;;;;;17.87;5.00;;;;;;;1.47;100.00;100402.69;5023883;28;20030;-67
2021/01/08 02:04:34;;;;;;;18.70;5.00;;;;;;;1.46;100.00;100403.50;5029131;28;20022;-67
2021/01/08 02:07:01;;;;;;;22.27;5.30;;;;;;;1.48;100.00;100404.44;5026369;28;20284;-69
2021/01/08 02:09:28;;;;;;;17.00;5.40;;;;;;;1.46;100.00;100400.94;5025718;28;20303;-68
2021/01/08 02:11:56;;;;;;;16.97;4.80;;;;;;;1.46;100.00;100406.09;5020213;28;20362;-69
2021/01/08 02:14:29;;;;;;;17.60;4.97;;;;;;;1.45;100.00;100404.31;5027195;28;20320;-69
2021/01/08 02:16:57;;;;;;;13.97;4.47;;;;;;;1.45;100.00;100409.47;5013452;28;20272;-68
2021/01/08 02:19:36;;;;;;;13.03;4.27;;;;;;;1.42;100.00;100406.78;5022193;28;20276;-67
2021/01/08 02:22:19;;;;;;;13.93;4.20;;;;;;;1.41;100.00;100407.63;5016571;28;20368;-69
2021/01/08 02:25:02;;;;;;;14.83;4.23;;;;;;;1.41;100.00;100407.63;5012726;28;20269;-67
2021/01/08 02:27:30;;;;;;;15.98;4.80;;;;;;;1.41;100.00;100405.03;5016288;28;20771;-68
2021/01/08 02:29:57;;;;;;;12.10;4.47;;;;;;;1.39;100.00;100422.16;5014406;28;21803;-68
2021/01/08 02:32:23;;;;;;;14.03;4.33;;;;;;;1.34;100.00;100414.28;5019622;28;20276;-68
2021/01/08 02:34:49;;;;;;;16.07;5.03;;;;;;;1.30;100.00;100408.97;5022232;28;20342;-69
2021/01/08 02:37:14;;;;;;;15.10;4.37;;;;;;;1.26;100.00;100415.72;5013017;28;20308;-67
2021/01/08 02:39:42;;;;;;;16.17;4.73;;;;;;;1.24;100.00;100419.94;5017651;28;20032;-68
2021/01/08 02:42:08;;;;;;;16.10;4.63;;;;;;;1.22;100.00;100420.72;5015518;28;20033;-69
2021/01/08 02:44:34;;;;;;;18.33;5.27;;;;;;;1.22;100.00;100420.72;5022415;28;20288;-69
2021/01/08 02:47:00;;;;;;;12.07;4.57;;;;;;;1.21;100.00;100418.94;5023686;28;20617;-67
2021/01/08 02:49:25;;;;;;;16.97;5.67;;;;;;;1.22;100.00;100416.44;5029100;28;20038;-68
2021/01/08 02:51:51;;;;;;;13.40;4.83;;;;;;;1.24;100.00;100419.06;5026833;28;20037;-67
2021/01/08 02:54:16;;;;;;;17.70;5.30;;;;;;;1.25;100.00;100421.69;5021005;28;20099;-68
2021/01/08 02:56:50;;;;;;;14.53;5.53;;;;;;;1.27;100.00;100426.88;5029036;28;20028;-67
2021/01/08 02:59:16;;;;;;;15.77;5.07;;;;;;;1.25;100.00;100431.13;5022210;28;20057;-67
2021/01/08 03:01:42;;;;;;;15.70;5.03;;;;;;;1.25;100.00;100423.38;5022623;28;20338;-68
2021/01/08 03:04:07;;;;;;;18.60;5.00;;;;;;;1.26;100.00;100422.56;5018660;28;20033;-68
2021/01/08 03:06:33;;;;;;;15.40;5.33;;;;;;;1.24;100.00;100425.09;5027978;28;20346;-67
2021/01/08 03:09:00;;;;;;;14.03;5.00;;;;;;;1.25;100.00;100426.84;5020090;28;20392;-68
2021/01/08 03:11:25;;;;;;;14.90;5.27;;;;;;;1.24;100.00;100434.50;5017320;28;20121;-68
2021/01/08 03:13:52;;;;;;;18.87;5.50;;;;;;;1.22;100.00;100431.88;5026055;28;20678;-67
2021/01/08 03:16:18;;;;;;;17.90;5.53;;;;;;;1.24;100.00;100434.50;5018733;28;20497;-67
2021/01/08 03:18:44;;;;;;;17.33;5.57;;;;;;;1.23;100.00;100436.22;5016272;28;20742;-69
2021/01/08 03:21:09;;;;;;;18.00;5.47;;;;;;;1.20;100.00;100437.78;5014482;28;20293;-67
2021/01/08 03:23:34;;;;;;;17.87;5.83;;;;;;;1.16;100.00;100436.81;5016860;28;20211;-67
2021/01/08 03:26:00;;;;;;;18.73;5.93;;;;;;;1.16;100.00;100437.69;5012050;28;20080;-69
2021/01/08 03:28:25;;;;;;;19.20;6.03;;;;;;;1.16;100.00;100431.66;5012069;28;20386;-67
2021/01/08 03:30:51;;;;;;;16.67;5.70;;;;;;;1.15;100.00;100429.91;5030732;28;20041;-67
2021/01/08 03:33:16;;;;;;;16.40;5.43;;;;;;;1.12;100.00;100435.84;5020513;28;20041;-67
2021/01/08 03:35:42;;;;;;;15.60;5.37;;;;;;;1.13;100.00;100431.56;5019714;28;20045;-67
2021/01/08 03:38:07;;;;;;;18.13;5.67;;;;;;;1.14;100.00;100439.34;5016210;28;20032;-68
2021/01/08 03:40:40;;;;;;;16.97;5.70;;;;;;;1.13;100.00;100439.28;5027725;28;20446;-68
2021/01/08 03:43:06;;;;;;;18.27;5.73;;;;;;;1.15;100.00;100435.06;5030468;28;20033;-68
2021/01/08 03:45:32;;;;;;;18.10;4.93;;;;;;;1.12;100.00;100435.84;5019164;28;20300;-68
2021/01/08 03:47:57;;;;;;;15.83;4.80;;;;;;;1.08;100.00;100431.38;5015298;28;20299;-69
2021/01/08 03:50:23;;;;;;;17.80;6.23;;;;;;;1.06;100.00;100429.59;5017267;28;20097;-67
2021/01/08 03:52:48;;;;;;;14.83;4.20;;;;;;;1.02;100.00;100444.06;5015895;28;20022;-67
2021/01/08 03:55:13;;;;;;;16.40;5.00;;;;;;;1.03;100.00;100443.22;5020862;28;20051;-68
2021/01/08 03:57:39;;;;;;;17.30;5.50;;;;;;;1.02;100.00;100449.22;5011731;28;20060;-69
2021/01/08 04:00:06;;;;;;;16.80;5.43;;;;;;;1.05;100.00;100449.31;5011169;28;20029;-68
2021/01/08 04:02:31;;;;;;;18.27;5.77;;;;;;;1.05;100.00;100448.44;5026488;28;20084;-69
2021/01/08 04:04:56;;;;;;;17.97;5.47;;;;;;;1.05;100.00;100454.44;5022985;28;20634;-67
2021/01/08 04:07:22;;;;;;;20.10;5.23;;;;;;;1.07;100.00;100451.94;5027468;28;20062;-67
2021/01/08 04:09:47;;;;;;;17.37;5.30;;;;;;;1.05;100.00;100439.00;5011637;28;20030;-68
2021/01/08 04:12:13;;;;;;;18.40;5.80;;;;;;;1.05;100.00;100446.72;5019717;28;20544;-68
2021/01/08 04:14:39;;;;;;;21.30;5.87;;;;;;;1.06;100.00;100443.34;5021383;28;20042;-67
2021/01/08 04:17:04;;;;;;;17.60;5.03;;;;;;;1.06;100.00;100443.34;5026354;28;20033;-68
2021/01/08 04:19:29;;;;;;;20.87;5.40;;;;;;;1.03;100.00;100450.94;5022214;28;20026;-69
2021/01/08 04:21:55;;;;;;;18.53;4.80;;;;;;;0.99;100.00;100446.53;5022624;28;20035;-67
2021/01/08 04:24:20;;;;;;;16.17;5.13;;;;;;;1.02;100.00;100451.78;5019703;28;20759;-68
2021/01/08 04:26:45;;;;;;;13.10;4.47;;;;;;;0.97;100.00;100450.75;5017675;28;20512;-69
2021/01/08 04:29:11;;;;;;;17.67;4.80;;;;;;;1.00;100.00;100450.84;5024631;28;20041;-68
2021/01/08 04:31:36;;;;;;;19.27;5.27;;;;;;;0.97;100.00;100448.19;5015231;28;20037;-68
2021/01/08 04:34:03;;;;;;;18.37;5.60;;;;;;;0.98;100.00;100454.19;5021242;28;20036;-69
2021/01/08 04:36:28;;;;;;;14.50;4.70;;;;;;;0.96;100.00;100454.13;5017231;28;20026;-69
2021/01/08 04:38:53;;;;;;;14.57;4.40;;;;;;;0.88;100.00;100451.28;5017950;28;20275;-68
2021/01/08 04:41:19;;;;;;;19.97;5.27;;;;;;;0.87;100.00;100458.97;5030085;28;20033;-68
2021/01/08 04:43:44;;;;;;;15.20;5.10;;;;;;;0.89;100.00;100459.88;5020171;28;20037;-69
2021/01/08 04:46:19;;;;;;;13.83;4.33;;;;;;;0.82;100.00;100463.03;5024567;28;20428;-67
2021/01/08 04:48:45;;;;;;;15.37;5.00;;;;;;;0.79;100.00;100460.38;5023474;28;20048;-69
2021/01/08 04:51:12;;;;;;;17.60;5.43;;;;;;;0.80;100.00;100465.56;5024741;28;20776;-69
2021/01/08 04:53:38;;;;;;;18.63;5.50;;;;;;;0.81;100.00;100463.88;5015009;28;20271;-67
2021/01/08 04:56:08;;;;;;;13.13;4.67;;;;;;;0.75;100.00;100469.69;5018978;28;20288;-67
2021/01/08 04:58:34;;;;;;;19.87;5.33;;;;;;;0.71;100.00;100466.91;5014340;28;20034;-68
2021/01/08 05:01:01;;;;;;;16.17;5.00;;;;;;;0.68;100.00;100471.97;5019477;28;20283;-68
2021/01/08 05:03:28;;;;;;;17.60;5.60;;;;;;;0.65;100.00;100466.72;5018095;28;20030;-69
2021/01/08 05:05:54;;;;;;;16.07;4.83;;;;;;;0.64;100.00;100468.41;5019555;28;20284;-68
2021/01/08 05:08:19;;;;;;;21.13;5.53;;;;;;;0.66;100.00;100471.03;5023149;28;20294;-68
2021/01/08 05:10:45;;;;;;;15.63;4.67;;;;;;;0.66;100.00;100473.59;5010987;28;20053;-68
2021/01/08 05:13:11;;;;;;;17.37;5.33;;;;;;;0.68;100.00;100482.25;5027468;28;20029;-68
2021/01/08 05:15:37;;;;;;;14.90;5.03;;;;;;;0.70;100.00;100485.75;5023362;28;20485;-69
2021/01/08 05:18:02;;;;;;;15.93;5.13;;;;;;;0.68;100.00;100477.97;5028435;28;20286;-68
2021/01/08 05:20:28;;;;;;;18.17;5.47;;;;;;;0.69;100.00;100484.88;5014129;28;20041;-68
2021/01/08 05:22:57;;;;;;;14.63;4.60;;;;;;;0.70;100.00;100480.59;5011626;28;20044;-69
2021/01/08 05:25:22;;;;;;;14.07;4.13;;;;;;;0.71;100.00;100483.22;5028144;28;20516;-69
2021/01/08 05:27:49;;;;;;;15.93;4.37;;;;;;;0.71;100.00;100479.78;5023748;28;20296;-69
2021/01/08 05:30:28;;;;;;;16.77;4.53;;;;;;;0.71;100.00;100490.94;5030324;28;20535;-68
2021/01/08 05:33:01;;;;;;;14.47;4.40;;;;;;;0.69;100.00;100491.72;5023583;28;20834;-69
2021/01/08 05:35:28;;;;;;;;;;;;;;;0.71;100.00;100497.78;5025142;28;20736;-68
2021/01/08 05:37:54;;;;;;;12.33;3.67;;;;;;;0.69;100.00;100499.44;5014763;28;19913;-68
2021/01/08 05:40:29;;;;;;;16.57;4.80;;;;;;;0.69;100.00;100505.47;5020977;28;20312;-68
2021/01/08 05:42:59;;;;;;;15.27;4.93;;;;;;;0.68;100.00;100500.25;5019318;28;20667;-69
2021/01/08 05:45:26;;;;;;;12.37;3.67;;;;;;;0.65;100.00;100502.72;5014693;28;20679;-68
2021/01/08 05:47:53;;;;;;;9.00;3.40;;;;;;;0.65;100.00;100513.88;5013441;28;20293;-67
2021/01/08 05:50:21;;;;;;;16.30;4.63;;;;;;;0.66;100.00;100512.19;5013498;28;20280;-69
2021/01/08 05:52:50;;;;;;;15.33;4.43;;;;;;;0.66;100.00;100515.66;5013927;28;20288;-68
2021/01/08 05:55:16;;;;;;;14.93;3.70;;;;;;;0.65;100.00;100519.03;5026478;28;20702;-69
2021/01/08 05:57:42;;;;;;;15.73;4.47;;;;;;;0.63;100.00;100512.09;5027981;28;20285;-69
2021/01/08 06:00:09;;;;;;;12.57;3.97;;;;;;;0.63;100.00;100512.09;5015637;28;20485;-68
2021/01/08 06:02:35;;;;;;;12.83;4.03;;;;;;;0.58;100.00;100528.19;5013414;28;20037;-68
2021/01/08 06:05:01;;;;;;;16.17;4.93;;;;;;;0.54;100.00;100526.34;5017744;28;20408;-67
2021/01/08 06:07:35;;;;;;;13.50;4.27;;;;;;;0.58;100.00;100528.19;5027127;28;20340;-68
2021/01/08 06:10:03;;;;;;;14.43;4.00;;;;;;;0.58;100.00;100528.19;5026031;28;20033;-70
2021/01/08 06:12:34;;;;;;;17.43;4.60;;;;;;;0.56;100.00;100527.28;5014730;28;20789;-68
2021/01/08 06:15:01;;;;;;;12.20;4.13;;;;;;;0.54;100.00;100528.91;5014646;28;20319;-69
2021/01/08 06:17:27;;;;;;;13.03;4.17;;;;;;;0.57;100.00;100536.75;5012492;28;20391;-68
2021/01/08 06:20:01;;;;;;;12.67;4.20;;;;;;;0.56;100.00;100534.97;5021829;28;20853;-69
2021/01/08 06:22:34;;;;;;;13.50;4.23;;;;;;;0.55;100.00;100542.66;5014597;28;20288;-67
2021/01/08 06:25:00;;;;;;;10.90;3.73;;;;;;;0.52;100.00;100534.81;5028497;28;20577;-69
2021/01/08 06:27:32;;;;;;;11.73;3.93;;;;;;;0.51;100.00;100536.53;5023571;28;20376;-69
2021/01/08 06:30:06;;;;;;;10.63;3.83;;;;;;;0.49;100.00;100538.16;5027407;28;20091;-70
2021/01/08 06:32:33;;;;;;;13.30;3.77;;;;;;;0.50;100.00;100542.47;5016544;28;20030;-69
2021/01/08 06:35:07;;;;;;;13.70;3.83;;;;;;;0.51;100.00;100541.66;5011837;28;20284;-69
2021/01/08 06:37:41;;;;;;;15.93;4.67;;;;;;;0.50;100.00;100550.19;5027592;28;20295;-69
2021/01/08 06:40:11;;;;;;;13.10;4.57;;;;;;;0.49;100.00;100548.44;5017895;28;20288;-69
2021/01/08 06:42:45;;;;;;;15.53;5.80;;;;;;;0.47;100.00;100560.34;5029399;28;20294;-70
2021/01/08 06:45:15;;;;;;;12.63;4.10;;;;;;;0.45;100.00;100561.09;5025408;28;20779;-69
2021/01/08 06:47:46;;;;;;;13.23;4.30;;;;;;;0.44;100.00;100552.50;5026802;28;20283;-70
2021/01/08 06:50:17;;;;;;;17.67;4.73;;;;;;;0.41;100.00;100560.13;5017453;28;20276;-69
2021/01/08 06:52:44;;;;;;;17.43;4.93;;;;;;;0.43;100.00;100563.63;5011192;28;20283;-69
2021/01/08 06:55:21;;;;;;;11.93;4.47;;;;;;;0.45;100.00;100572.28;5011551;28;20272;-69
2021/01/08 06:57:52;;;;;;;16.00;4.17;;;;;;;0.43;100.00;100568.75;5012572;28;20348;-69
2021/01/08 07:00:27;;;;;;;19.57;4.87;;;;;;;0.46;100.00;100568.88;5024412;28;20299;-68
2021/01/08 07:02:58;;;;;;;15.40;4.23;;;;;;;0.46;100.00;100576.59;5030682;28;20275;-68
2021/01/08 07:05:24;;;;;;;16.20;4.57;;;;;;;0.45;100.00;100582.56;5015025;28;20276;-69
2021/01/08 07:07:50;;;;;;;14.90;5.17;;;;;;;0.49;100.00;100589.59;5011280;28;20364;-69
2021/01/08 07:10:17;;;;;;;17.30;5.00;;;;;;;0.49;100.00;100599.88;5010818;28;20513;-68
2021/01/08 07:12:43;;;;;;;13.87;4.10;;;;;;;0.49;100.00;100601.59;5011133;28;20272;-69
2021/01/08 07:15:11;;;;;;;16.87;4.47;;;;;;;0.48;100.00;100598.09;5012046;28;20283;-68
2021/01/08 07:17:38;;;;;;;19.10;5.07;;;;;;;0.50;100.00;100601.66;4990394;28;706995;-68
2021/01/08 07:20:05;;;;;;;20.37;5.30;;;;;;;0.50;100.00;100611.94;5018715;28;20288;-70
2021/01/08 07:22:40;;;;;;;19.07;5.40;;;;;;;0.50;100.00;100617.06;5012832;28;20301;-69
2021/01/08 07:25:11;;;;;;;16.30;4.83;;;;;;;0.46;100.00;100617.75;5012710;28;20284;-69
2021/01/08 07:27:40;;;;;;;20.93;5.03;;;;;;;0.50;100.00;100616.19;5011762;28;20346;-69
2021/01/08 07:30:08;;;;;;;16.80;4.87;;;;;;;0.50;100.00;100626.50;5016619;28;20290;-68
2021/01/08 07:32:37;;;;;;;16.97;4.97;;;;;;;0.50;100.00;100622.22;5021734;28;20280;-72
2021/01/08 07:35:29;;;;;;;17.80;5.00;;;;;;;0.52;100.00;100620.59;5018600;28;20352;-69
2021/01/08 07:38:14;;;;;;;14.73;4.83;;;;;;;0.52;100.00;100625.72;5012138;28;20307;-68
2021/01/08 07:40:48;;;;;;;16.93;4.70;;;;;;;0.53;100.00;100630.06;5014304;28;20620;-68
2021/01/08 07:43:13;;;;;;;18.30;5.20;;;;;;;0.55;100.00;100631.00;5027087;28;20380;-68
2021/01/08 07:45:53;;;;;;;21.10;5.33;;;;;;;0.57;100.00;100634.50;5011312;28;20364;-68
2021/01/08 07:48:34;;;;;;;20.37;5.07;;;;;;;0.59;100.00;100648.28;5010999;28;20100;-69
2021/01/08 07:51:11;;;;;;;20.10;5.33;;;;;;;0.60;100.00;100649.16;5012068;28;20303;-70
2021/01/08 07:53:45;;;;;;;23.93;5.67;;;;;;;0.64;100.00;100652.78;5020011;28;20284;-69
2021/01/08 07:56:12;;;;;;;24.97;5.60;;;;;;;0.65;100.00;100657.09;5012639;28;20276;-68
2021/01/08 07:58:38;;;;;;;20.87;5.23;;;;;;;0.69;100.00;100664.13;5022443;28;20382;-69
2021/01/08 08:01:08;;;;;;;25.90;7.10;;;;;;;0.69;100.00;100674.41;5025006;28;20834;-69
2021/01/08 08:03:34;;;;;;;24.53;6.77;;;;;;;0.71;100.00;100675.34;5028369;28;20558;-69
2021/01/08 08:06:01;;;;;;;28.33;7.33;;;;;;;0.69;100.00;100680.44;5013100;28;20311;-69
2021/01/08 08:08:27;;;;;;;34.70;6.93;;;;;;;0.68;100.00;100677.78;5011632;28;20320;-71
2021/01/08 08:10:52;;;;;;;37.77;8.40;;;;;;;0.65;100.00;100682.81;5011345;28;20707;-70
2021/01/08 08:13:27;;;;;;;33.00;7.90;;;;;;;0.66;100.00;100684.59;5022013;28;20040;-69
2021/01/08 08:15:52;;;;;;;36.60;9.10;;;;;;;0.70;100.00;100684.75;5015853;28;20887;-71
2021/01/08 08:18:17;;;;;;;33.47;8.60;;;;;;;0.70;100.00;100686.44;5013768;28;20284;-69
2021/01/08 08:20:43;;;;;;;26.73;6.77;;;;;;;0.71;100.00;100685.63;5023046;28;20493;-68
2021/01/08 08:23:18;;;;;;;29.73;5.63;;;;;;;0.71;100.00;100695.94;5021370;28;20474;-70
2021/01/08 08:25:44;;;;;;;27.80;6.90;;;;;;;0.68;100.00;100698.38;5014363;28;20493;-69
2021/01/08 08:28:10;;;;;;;29.03;6.40;;;;;;;0.69;100.00;100690.72;5018035;28;20295;-68
2021/01/08 08:30:36;;;;;;;32.13;7.03;;;;;;;0.69;100.00;100705.28;5011053;28;20656;-68
2021/01/08 08:33:05;;;;;;;32.93;8.20;;;;;;;0.64;100.00;100699.97;5021387;28;20303;-69
2021/01/08 08:35:35;;;;;;;33.87;7.70;;;;;;;0.66;100.00;100712.88;5014158;28;20631;-68
2021/01/08 08:38:01;;;;;;;34.10;7.80;;;;;;;0.66;100.00;100716.34;5015837;28;20276;-69
2021/01/08 08:40:28;;;;;;;31.13;7.17;;;;;;;0.71;100.00;100724.22;5024984;28;20279;-68
2021/01/08 08:42:58;;;;;;;29.37;7.37;;;;;;;0.76;100.00;100720.16;5009482;28;20629;-69
2021/01/08 08:45:28;;;;;;;34.43;8.40;;;;;;;0.81;100.00;100731.53;5018625;28;20279;-70
2021/01/08 08:47:58;;;;;;;30.83;8.50;;;;;;;0.83;100.00;100742.75;5010317;28;20319;-70
2021/01/08 08:50:25;;;;;;;27.97;6.90;;;;;;;0.83;100.00;100729.88;5021163;28;20354;-69
2021/01/08 08:52:52;;;;;;;28.30;7.13;;;;;;;0.91;100.00;100738.81;5011645;28;20276;-70
2021/01/08 08:55:31;;;;;;;25.47;7.13;;;;;;;0.93;100.00;100744.88;5011144;28;20287;-68
2021/01/08 08:58:10;;;;;;;22.77;6.07;;;;;;;0.86;100.00;100750.63;5016482;28;20280;-69
2021/01/08 09:00:39;;;;;;;19.03;6.03;;;;;;;0.91;100.00;100746.53;5010303;28;20279;-70
2021/01/08 09:03:21;;;;;;;19.43;5.60;;;;;;;0.90;100.00;100752.50;5009965;28;20671;-70
2021/01/08 09:05:51;;;;;;;16.80;4.97;;;;;;;1.01;100.00;100751.22;5010168;28;20292;-69
2021/01/08 09:08:36;;;;;;;19.90;5.00;;;;;;;1.10;100.00;100761.91;5010335;28;20040;-69
2021/01/08 09:11:29;;;;;;;14.37;4.60;;;;;;;1.22;100.00;100758.06;5012590;28;20268;-70
2021/01/08 09:14:08;;;;;;;15.07;4.55;;;;;;;1.36;100.00;100756.91;5020015;28;20275;-70
2021/01/08 09:16:44;;;;;;;16.90;5.13;;;;;;;1.34;100.00;100761.13;5019286;28;20030;-66
2021/01/08 09:19:20;;;;;;;17.00;5.60;;;;;;;1.38;100.00;100766.47;5011709;28;20265;-70
2021/01/08 09:21:51;;;;;;;17.13;5.57;;;;;;;1.36;100.00;100769.81;5014156;28;20303;-66
2021/01/08 09:24:31;;;;;;;18.27;5.80;;;;;;;1.41;100.00;100764.00;5014277;28;20283;-66
2021/01/08 09:27:04;;;;;;;17.23;5.07;;;;;;;1.36;100.00;100769.81;5010266;28;20806;-67
2021/01/08 09:29:32;;;;;;;19.83;4.77;;;;;;;1.53;100.00;100768.75;5010257;28;20288;-68
2021/01/08 09:32:00;;;;;;;14.70;5.07;;;;;;;1.49;100.00;100766.88;5015033;28;20265;-68
2021/01/08 09:34:28;;;;;;;13.37;4.50;;;;;;;1.62;100.00;100768.22;5013602;28;20269;-66
2021/01/08 09:36:55;;;;;;;13.33;5.13;;;;;;;1.80;100.00;100768.03;5022104;28;20279;-68
2021/01/08 09:39:22;;;;;;;15.77;5.13;;;;;;;1.75;100.00;100780.75;5019744;28;20396;-66
2021/01/08 09:42:06;;;;;;;12.87;4.30;;;;;;;1.88;100.00;100771.78;5014291;28;20273;-68
2021/01/08 09:44:33;;;;;;;14.93;4.73;;;;;;;1.85;100.00;100766.53;5017605;28;20667;-67
2021/01/08 09:47:00;;;;;;;12.70;4.10;;;;;;;1.84;100.00;100775.97;5016846;28;20329;-67
2021/01/08 09:49:38;;;;;;;12.40;4.00;;;;;;;1.76;100.00;100782.53;5016639;28;20730;-66
2021/01/08 09:52:04;;;;;;;11.37;3.73;;;;;;;1.77;100.00;100777.41;5019747;28;20339;-67
2021/01/08 09:54:39;;;;;;;13.03;4.27;;;;;;;1.77;100.00;100779.13;5015443;28;20785;-67
2021/01/08 09:57:04;;;;;;;11.00;4.30;;;;;;;1.82;100.00;100777.63;5023050;28;20276;-66
2021/01/08 09:59:29;;;;;;;11.90;3.90;;;;;;;1.88;100.00;100776.94;5023347;28;20343;-68
2021/01/08 10:01:59;;;;;;;13.23;4.00;;;;;;;1.97;100.00;100778.19;5011678;28;20420;-65
2021/01/08 10:04:28;;;;;;;11.63;4.03;;;;;;;2.02;100.00;100791.22;5016910;28;20170;-66
2021/01/08 10:06:57;;;;;;;13.00;4.30;;;;;;;1.80;100.00;100786.09;5010753;28;20942;-66
2021/01/08 10:09:23;;;;;;;13.60;4.93;;;;;;;1.89;100.00;100786.44;5021130;28;20288;-66
2021/01/08 10:11:59;;;;;;;11.23;3.80;;;;;;;1.85;100.00;100787.16;5016645;28;20280;-67
2021/01/08 10:14:32;;;;;;;12.10;4.10;;;;;;;1.73;100.00;100788.44;5012619;28;20037;-68
2021/01/08 10:17:17;;;;;;;12.17;3.40;;;;;;;1.66;100.00;100778.72;5029557;28;20311;-67
2021/01/08 10:19:47;;;;;;;12.83;4.03;;;;;;;1.71;100.00;100784.94;5011658;28;20249;-67
2021/01/08 10:22:19;;;;;;;11.67;3.80;;;;;;;1.67;100.00;100785.63;5011469;28;20660;-70
2021/01/08 10:24:44;;;;;;;12.10;4.63;;;;;;;1.75;100.00;100786.78;5011856;28;20283;-65
2021/01/08 10:27:10;;;;;;;14.63;4.37;;;;;;;1.85;100.00;100782.00;5024557;28;20034;-67
2021/01/08 10:29:39;;;;;;;16.07;5.27;;;;;;;1.93;100.00;100796.91;5011865;28;20109;-67
2021/01/08 10:32:14;;;;;;;17.13;4.67;;;;;;;2.09;100.00;100792.34;5012804;28;20030;-69
2021/01/08 10:34:42;;;;;;;18.67;6.03;;;;;;;1.95;100.00;100789.25;5036899;28;20280;-66
2021/01/08 10:37:15;;;;;;;16.87;5.33;;;;;;;2.14;100.00;100796.84;5030938;28;20682;-67
2021/01/08 10:39:41;;;;;;;20.37;6.10;;;;;;;2.17;100.00;100796.94;5032800;28;20264;-67
2021/01/08 10:42:07;;;;;;;25.43;7.83;;;;;;;2.11;100.00;100789.00;5024381;28;20647;-67
2021/01/08 10:44:32;;;;;;;25.63;7.80;;;;;;;2.20;100.00;100791.91;5011964;28;20072;-66
2021/01/08 10:46:58;;;;;;;25.27;8.00;;;;;;;2.28;100.00;100790.47;5011881;28;20695;-69
2021/01/08 10:49:23;;;;;;;24.20;7.60;;;;;;;2.30;100.00;100788.84;5012995;28;20057;-70
2021/01/08 10:51:49;;;;;;;26.73;8.10;;;;;;;2.28;100.00;100789.59;5012339;28;20028;-69
2021/01/08 10:54:17;;;;;;;29.17;7.73;;;;;;;2.26;100.00;100797.28;5020272;28;20032;-68
2021/01/08 10:56:43;;;;;;;24.23;6.90;;;;;;;2.28;100.00;100790.47;5016199;28;20539;-70
2021/01/08 10:59:11;;;;;;;19.60;6.20;;;;;;;2.14;100.00;100794.25;5012512;28;20261;-69
2021/01/08 11:01:41;;;;;;;20.53;6.00;;;;;;;2.23;100.00;100786.88;5012454;28;20057;-68
2021/01/08 11:04:06;;;;;;;20.43;6.90;;;;;;;2.19;100.00;100795.31;5019496;28;20272;-69
2021/01/08 11:06:32;;;;;;;18.87;5.97;;;;;;;2.29;100.00;100792.22;5012109;28;20327;-69
2021/01/08 11:08:57;;;;;;;19.53;6.07;;;;;;;2.30;100.00;100778.53;5012311;28;20037;-69
2021/01/08 11:11:24;;;;;;;17.47;5.50;;;;;;;2.33;100.00;100780.34;5012507;28;20061;-69
2021/01/08 11:13:49;;;;;;;15.87;5.93;;;;;;;2.40;100.00;100773.69;5012205;28;20378;-69
2021/01/08 11:16:14;;;;;;;19.33;6.43;;;;;;;2.49;100.00;100779.19;5012154;28;20331;-69
2021/01/08 11:18:40;;;;;;;14.63;4.87;;;;;;;2.53;100.00;100781.91;5012160;28;20076;-69
2021/01/08 11:21:05;;;;;;;12.77;4.53;;;;;;;2.53;100.00;100781.03;5011883;28;20022;-69
2021/01/08 11:23:31;;;;;;;12.27;4.23;;;;;;;2.27;100.00;100777.53;5018655;28;20040;-70